AF1559 / F-HBLF 7700 Squawk Report (1st of December, 2019)

Time Lat Lon Altitude Heading Speed Vertical Rate
2019-12-01 07:38:39 GMT 49.212513 1.716325 7,150 140 257 -1792
2019-12-01 07:38:28 GMT 49.220192 1.704688 7,350 140 257 -1792
2019-12-01 07:38:17 GMT 49.231598 1.690232 7,625 140 257 -1792
2019-12-01 07:38:02 GMT 49.243095 1.674331 7,875 140 257 -1792
2019-12-01 07:37:57 GMT 49.247704 1.668187 8,275 140 257 -1792
2019-12-01 07:37:43 GMT 49.261810 1.651635 8,400 148 297 0
2019-12-01 07:37:36 GMT 49.268978 1.641806 8,675 148 297 0
2019-12-01 07:37:24 GMT 49.278988 1.629012 8,950 148 297 0
2019-12-01 07:37:15 GMT 49.286297 1.618026 9,275 148 297 0
2019-12-01 07:37:07 GMT 49.293419 1.608630 9,650 148 297 0
2019-12-01 07:36:53 GMT 49.306782 1.591933 9,950 148 297 0
2019-12-01 07:36:46 GMT 49.313576 1.583332 9,950 148 297 0
2019-12-01 07:36:32 GMT 49.326519 1.562299 9,850 148 297 0
2019-12-01 07:36:19 GMT 49.340206 1.547193 9,950 148 297 0
2019-12-01 07:36:11 GMT 49.349422 1.538014 10,000 148 297 0
2019-12-01 07:36:03 GMT 49.361385 1.526305 10,000 148 297 0
2019-12-01 07:35:54 GMT 49.369114 1.517487 10,000 148 297 0
2019-12-01 07:35:41 GMT 49.387596 1.499200 10,000 148 297 0
2019-12-01 07:35:35 GMT 49.392113 1.494719 10,000 148 297 0
2019-12-01 07:35:21 GMT 49.408916 1.478312 10,000 148 297 0
2019-12-01 07:35:10 GMT 49.420506 1.467325 10,000 148 297 0
2019-12-01 07:35:00 GMT 49.432285 1.455985 10,000 148 297 0
2019-12-01 07:34:55 GMT 49.440479 1.447968 10,000 148 297 0
2019-12-01 07:34:43 GMT 49.451279 1.438021 10,000 148 297 0
2019-12-01 07:34:34 GMT 49.462917 1.426367 10,000 148 297 0
2019-12-01 07:34:20 GMT 49.480282 1.409590 10,000 148 297 0
2019-12-01 07:34:14 GMT 49.486099 1.403875 10,000 148 297 0
2019-12-01 07:33:59 GMT 49.505421 1.384574 10,000 148 297 0
2019-12-01 07:33:51 GMT 49.511284 1.379526 10,000 148 297 0
2019-12-01 07:33:39 GMT 49.532093 1.359410 10,000 148 322 256
2019-12-01 07:33:33 GMT 49.532093 1.359410 10,000 148 322 256
2019-12-01 07:33:20 GMT 49.555508 1.337511 10,000 148 322 256
2019-12-01 07:33:15 GMT 49.555508 1.337511 10,000 148 322 256
2019-12-01 07:32:57 GMT 49.575012 1.319473 10,000 148 322 256
2019-12-01 07:32:51 GMT 49.581905 1.313534 10,000 148 322 256
2019-12-01 07:32:34 GMT 49.604015 1.292824 10,000 148 322 256
2019-12-01 07:32:27 GMT 49.614212 1.284287 10,000 148 322 256
2019-12-01 07:32:13 GMT 49.633297 1.266397 10,000 148 322 256
2019-12-01 07:31:46 GMT 49.665421 1.237075 10,000 149 286 -2176
2019-12-01 07:31:30 GMT 49.683620 1.219928 10,025 149 286 -2176
2019-12-01 07:31:19 GMT 49.698284 1.206566 10,150 148 288 -1792
2019-12-01 07:31:07 GMT 49.710297 1.195431 10,525 148 350 -1920
2019-12-01 07:30:59 GMT 49.719002 1.187266 11,125 148 350 -1920
2019-12-01 07:30:47 GMT 49.733898 1.173384 11,325 148 350 -1920
2019-12-01 07:30:39 GMT 49.744278 1.162472 11,525 148 350 -1920
2019-12-01 07:30:29 GMT 49.751820 1.155569 11,850 148 350 -1920
2019-12-01 07:30:14 GMT 49.770813 1.137530 11,725 148 350 -1920
2019-12-01 07:30:09 GMT 49.780216 1.129810 11,825 148 350 -1920
2019-12-01 07:29:02 GMT 49.862316 1.054740 14,200 149 354 -1860
2019-12-01 07:28:47 GMT 49.889595 1.028274 14,775 148 316 -2760
2019-12-01 07:28:23 GMT 49.916267 1.002868 15,800 149 371 -2160
2019-12-01 07:28:09 GMT 49.937256 0.983606 16,450 148 364 -1380
2019-12-01 07:27:56 GMT 49.955578 0.967595 17,175 148 340 -2700
2019-12-01 07:27:46 GMT 49.991692 0.933511 17,425 149 410 -3540
2019-12-01 07:27:32 GMT 49.991692 0.933511 17,975 148 395 -1680
2019-12-01 07:27:19 GMT 50.011917 0.913964 18,775 147 376 -1380
2019-12-01 07:27:09 GMT 50.026024 0.902579 19,150 146 400 -2400
2019-12-01 07:26:58 GMT 50.043087 0.885269 19,850 151 288 -2280
2019-12-01 07:26:48 GMT 50.084305 0.845828 20,300 147 448 -3540
2019-12-01 07:26:31 GMT 50.084305 0.845828 21,250 147 363 -1920
2019-12-01 07:26:19 GMT 50.101566 0.828659 21,800 149 383 -4200
2019-12-01 07:26:08 GMT 50.118416 0.813364 22,400 150 347 -2160
2019-12-01 07:25:56 GMT 50.153843 0.780380 23,325 151 339 -660
2019-12-01 07:25:44 GMT 50.153843 0.780380 24,000 150 384 -2400
2019-12-01 07:25:34 GMT 50.169754 0.766330 24,350 148 360 180
2019-12-01 07:25:24 GMT 50.196514 0.740310 24,550 149 351 120
2019-12-01 07:25:14 GMT 50.196514 0.740310 24,575 148 411 0
2019-12-01 07:25:04 GMT 50.214851 0.723519 24,675 152 381 -600
2019-12-01 07:24:53 GMT 50.231243 0.707842 24,825 147 394 -960
2019-12-01 07:24:40 GMT 50.250523 0.688331 24,975 150 374 -840
2019-12-01 07:24:30 GMT 50.265663 0.675195 25,125 149 346 -480
2019-12-01 07:24:20 GMT 50.282455 0.659266 25,175 147 381 -480
2019-12-01 07:24:10 GMT 50.297405 0.644548 25,350 148 424 -780
2019-12-01 07:24:00 GMT 50.316986 0.621860 25,475 154 267 -120
2019-12-01 07:23:50 GMT 50.326347 0.616210 25,550 146 424 -720
2019-12-01 07:23:39 GMT 50.342598 0.599248 25,700 144 410 -420
2019-12-01 07:23:29 GMT 50.358055 0.581942 25,800 146 363 -1380
2019-12-01 07:23:19 GMT 50.372086 0.567444 25,875 150 261 -720
2019-12-01 07:23:08 GMT 50.383633 0.557032 26,025 143 541 -420
2019-12-01 07:22:54 GMT 50.411800 0.521019 26,200 145 446 -480
2019-12-01 07:22:43 GMT 50.428696 0.501893 26,300 145 375 -1200
2019-12-01 07:22:33 GMT 50.443047 0.486542 26,450 146 264 -600
2019-12-01 07:22:22 GMT 50.457302 0.472488 26,550 137 394 -900
2019-12-01 07:22:10 GMT 50.474857 0.452496 26,725 144 405 -840
2019-12-01 07:22:00 GMT 50.489822 0.435488 26,825 147 371 -600
2019-12-01 07:21:49 GMT 50.507130 0.416028 26,975 143 389 -540
2019-12-01 07:21:37 GMT 50.524567 0.395855 27,075 145 422 -600
2019-12-01 07:21:27 GMT 50.540630 0.378380 27,200 158 387 -420
2019-12-01 07:21:16 GMT 50.555901 0.361673 27,325 144 460 -600
2019-12-01 07:21:05 GMT 50.575001 0.340273 27,450 143 378 -660
2019-12-01 07:20:55 GMT 50.587566 0.324705 27,575 149 355 -480
2019-12-01 07:20:45 GMT 50.601772 0.311600 27,700 139 420 -360
2019-12-01 07:20:34 GMT 50.617928 0.292572 27,825 140 515 -300
2019-12-01 07:20:19 GMT 50.645538 0.256631 27,975 150 392 -720
2019-12-01 07:20:07 GMT 50.664543 0.239798 28,150 144 414 -660
2019-12-01 07:19:57 GMT 50.681770 0.222104 28,250 127 379 -420
2019-12-01 07:19:46 GMT 50.693577 0.197935 28,400 151 367 -780
2019-12-01 07:19:35 GMT 50.710014 0.183904 28,600 142 351 -420
2019-12-01 07:19:23 GMT 50.726902 0.163511 28,675 145 397 -600
2019-12-01 07:19:13 GMT 50.740574 0.148655 28,825 145 388 -180
2019-12-01 07:19:03 GMT 50.755318 0.132395 28,900 149 489 0
2019-12-01 07:18:52 GMT 50.777378 0.112548 29,000 155 339 0
2019-12-01 07:18:42 GMT 50.793423 0.099726 29,000 159 377 0
2019-12-01 07:18:32 GMT 50.811672 0.087524 29,000 158 372 0
2019-12-01 07:18:21 GMT 50.829712 0.075911 29,000 161 489 0
2019-12-01 07:18:10 GMT 50.850628 0.061867 29,000 154 455 0
2019-12-01 07:18:00 GMT 50.868923 0.049283 29,025 157 401 0
2019-12-01 07:17:49 GMT 50.887753 0.036700 28,975 157 451 -120
2019-12-01 07:17:39 GMT 50.905880 0.025016 29,000 156 434 60
2019-12-01 07:17:28 GMT 50.925690 0.011670 29,000 159 380 0
2019-12-01 07:17:18 GMT 50.944107 -0.000770 29,000 157 451 -60
2019-12-01 07:17:08 GMT 50.961880 -0.012265 29,000 157 414 120
2019-12-01 07:16:58 GMT 50.979469 -0.024259 29,025 157 414 0
2019-12-01 07:16:48 GMT 50.995323 -0.041808 29,000 168 475 0
2019-12-01 07:16:38 GMT 51.016857 -0.049042 29,000 155 383 0
2019-12-01 07:16:26 GMT 51.055840 -0.075825 29,000 155 428 -120
2019-12-01 07:16:16 GMT 51.055840 -0.075825 29,000 157 406 -60
2019-12-01 07:16:05 GMT 51.074337 -0.087868 28,975 157 421 240
2019-12-01 07:15:55 GMT 51.091888 -0.099675 29,000 156 449 -60
2019-12-01 07:15:44 GMT 51.112926 -0.114023 29,000 156 400 0
2019-12-01 07:15:34 GMT 51.153061 -0.140205 29,000 158 434 0
2019-12-01 07:15:22 GMT 51.153061 -0.140205 29,000 158 424 0
2019-12-01 07:15:12 GMT 51.170383 -0.152812 29,000 152 473 0
2019-12-01 07:15:01 GMT 51.190563 -0.165739 29,000 155 438 0
2019-12-01 07:14:51 GMT 51.207569 -0.178161 29,000 157 425 420
2019-12-01 07:14:41 GMT 51.225719 -0.190423 29,000 158 476 1080
2019-12-01 07:14:31 GMT 51.245239 -0.203812 28,950 156 438 1380
2019-12-01 07:14:20 GMT 51.264317 -0.216699 28,650 157 410 1200
2019-12-01 07:14:10 GMT 51.282375 -0.228990 28,350 158 462 1680
2019-12-01 07:13:59 GMT 51.301636 -0.242561 28,200 157 419 1860
2019-12-01 07:13:49 GMT 51.320045 -0.254434 27,850 156 441 1380
2019-12-01 07:13:37 GMT 51.341915 -0.269855 27,600 158 435 1380
2019-12-01 07:13:26 GMT 51.362534 -0.283899 27,300 156 469 1860
2019-12-01 07:13:16 GMT 51.379929 -0.294554 26,875 155 414 1680
2019-12-01 07:13:05 GMT 51.399639 -0.308635 26,600 160 375 3420
2019-12-01 07:12:55 GMT 51.417923 -0.321299 26,175 156 401 1020
2019-12-01 07:12:44 GMT 51.436935 -0.332441 25,750 152 451 1080
2019-12-01 07:12:34 GMT 51.454975 -0.346574 25,375 156 398 600
2019-12-01 07:12:24 GMT 51.471905 -0.358337 25,100 156 417 0
2019-12-01 07:12:14 GMT 51.489609 -0.370811 25,000 158 447 0
2019-12-01 07:12:04 GMT 51.507294 -0.380746 25,000 153 475 0
2019-12-01 07:11:54 GMT 51.525906 -0.395650 25,000 157 435 -60
2019-12-01 07:11:44 GMT 51.544540 -0.407890 25,000 153 423 -60
2019-12-01 07:11:33 GMT 51.563950 -0.421641 25,000 156 421 60
2019-12-01 07:11:22 GMT 51.583553 -0.435674 25,000 160 420 120
2019-12-01 07:11:12 GMT 51.619122 -0.459785 25,000 157 413 60
2019-12-01 07:11:02 GMT 51.619122 -0.459785 25,000 155 420 -180
2019-12-01 07:10:51 GMT 51.638390 -0.473162 25,025 154 393 60
2019-12-01 07:10:41 GMT 51.676487 -0.499492 25,000 158 412 60
2019-12-01 07:10:30 GMT 51.694210 -0.511824 25,025 156 411 -60
2019-12-01 07:10:20 GMT 51.694210 -0.511824 25,000 157 425 0
2019-12-01 07:10:09 GMT 51.713413 -0.525517 25,000 157 414 0
2019-12-01 07:09:59 GMT 51.748863 -0.549399 25,000 156 388 0
2019-12-01 07:09:49 GMT 51.748863 -0.549399 25,000 153 483 0
2019-12-01 07:09:39 GMT 51.769188 -0.564496 25,000 160 365 0
2019-12-01 07:09:29 GMT 51.785179 -0.575184 25,000 159 414 0
2019-12-01 07:09:17 GMT 51.807934 -0.590488 25,000 155 408 0
2019-12-01 07:09:07 GMT 51.825466 -0.602865 25,000 157 388 0
2019-12-01 07:08:56 GMT 51.845432 -0.616605 25,000 158 459 0
2019-12-01 07:08:45 GMT 51.865177 -0.630210 25,000 157 388 0
2019-12-01 07:08:34 GMT 51.884483 -0.643778 25,000 156 429 0
2019-12-01 07:08:24 GMT 51.903027 -0.656008 25,000 158 420 0
2019-12-01 07:08:14 GMT 51.920856 -0.669202 25,000 146 476 0
2019-12-01 07:08:04 GMT 51.939266 -0.688885 25,000 139 348 -60
2019-12-01 07:07:52 GMT 51.955177 -0.710561 25,000 127 365 240
2019-12-01 07:07:42 GMT 51.966850 -0.735405 25,025 119 380 -60
2019-12-01 07:07:31 GMT 51.976795 -0.763654 24,975 113 431 0
2019-12-01 07:07:21 GMT 51.992199 -0.823562 25,000 111 439 0
2019-12-01 07:07:11 GMT 51.992199 -0.823562 25,000 114 373 0
2019-12-01 07:07:00 GMT 52.000599 -0.852931 25,000 114 424 0
2019-12-01 07:06:50 GMT 52.008820 -0.883324 25,000 117 391 0
2019-12-01 07:06:39 GMT 52.017311 -0.914461 25,000 115 370 0
2019-12-01 07:06:29 GMT 52.024837 -0.942611 25,000 114 428 0
2019-12-01 07:06:19 GMT 52.032791 -0.972430 25,000 114 375 0
2019-12-01 07:06:09 GMT 52.039909 -0.998198 25,000 113 452 0
2019-12-01 07:05:59 GMT 52.056316 -1.060946 25,000 111 424 0
2019-12-01 07:05:48 GMT 52.056316 -1.060946 25,000 115 380 0
2019-12-01 07:05:38 GMT 52.063911 -1.086755 25,000 114 424 -60
2019-12-01 07:05:27 GMT 52.072796 -1.122283 25,000 118 374 -6300
2019-12-01 07:05:17 GMT 52.080074 -1.147978 25,025 113 422 0
2019-12-01 07:05:05 GMT 52.088715 -1.183028 25,175 114 408 540
2019-12-01 07:04:55 GMT 52.097412 -1.212802 25,600 113 423 -1200
2019-12-01 07:04:45 GMT 52.105335 -1.242000 26,000 114 394 -2040
2019-12-01 07:04:34 GMT 52.115150 -1.274143 26,425 123 418 -2220
2019-12-01 07:04:24 GMT 52.125248 -1.299828 26,825 123 423 -2340
2019-12-01 07:04:14 GMT 52.135937 -1.326546 27,375 123 465 -2340
2019-12-01 07:04:04 GMT 52.147057 -1.353062 27,800 123 502 -3060
2019-12-01 07:03:53 GMT 52.160385 -1.386983 28,325 123 441 -1800
2019-12-01 07:03:43 GMT 52.170708 -1.413933 28,800 127 425 -3060
2019-12-01 07:03:31 GMT 52.184750 -1.448555 29,350 120 443 -2220
2019-12-01 07:03:21 GMT 52.195278 -1.477294 29,800 126 415 -2580
2019-12-01 07:03:11 GMT 52.223091 -1.533126 30,550 131 484 -2520
2019-12-01 07:03:00 GMT 52.223091 -1.533126 30,975 143 451 -5400
2019-12-01 07:02:49 GMT 52.259457 -1.579867 31,600 145 447 -2160
2019-12-01 07:02:38 GMT 52.259457 -1.579867 32,100 148 411 -3420
2019-12-01 07:02:27 GMT 52.278923 -1.597744 32,450 151 480 -1260
2019-12-01 07:02:16 GMT 52.320164 -1.634728 32,925 151 446 0
2019-12-01 07:02:05 GMT 52.320164 -1.634728 33,000 150 472 0
2019-12-01 07:01:55 GMT 52.339600 -1.651108 33,000 152 411 0
2019-12-01 07:01:45 GMT 52.358101 -1.667637 33,000 148 432 0
2019-12-01 07:01:35 GMT 52.376427 -1.684149 33,000 149 447 0
2019-12-01 07:01:25 GMT 52.394737 -1.701543 33,000 151 490 0
2019-12-01 07:01:15 GMT 52.414764 -1.718429 33,000 147 442 0
2019-12-01 07:01:05 GMT 52.431938 -1.736645 33,000 152 485 0
2019-12-01 07:00:55 GMT 52.451881 -1.753588 33,000 154 417 0
2019-12-01 07:00:45 GMT 52.470867 -1.768094 33,000 150 501 0
2019-12-01 07:00:35 GMT 52.490215 -1.786825 33,000 150 442 0
2019-12-01 07:00:25 GMT 52.509506 -1.804425 33,000 153 437 0
2019-12-01 07:00:14 GMT 52.549904 -1.835575 33,000 154 478 0
2019-12-01 07:00:04 GMT 52.549904 -1.835575 33,000 156 453 0
2019-12-01 06:59:54 GMT 52.568958 -1.847910 33,000 162 474 0
2019-12-01 06:59:44 GMT 52.590683 -1.860528 33,000 160 467 0
2019-12-01 06:59:34 GMT 52.610744 -1.871411 33,000 159 471 0
2019-12-01 06:59:23 GMT 52.633476 -1.883052 33,000 170 458 0
2019-12-01 06:59:12 GMT 52.658611 -1.889024 33,000 168 483 0
2019-12-01 06:59:02 GMT 52.678242 -1.895277 33,000 171 542 420
2019-12-01 06:58:52 GMT 52.701134 -1.901099 32,975 172 424 960
2019-12-01 06:58:40 GMT 52.728745 -1.906310 32,775 168 475 1140
2019-12-01 06:58:29 GMT 52.774323 -1.918322 32,550 170 446 2220
2019-12-01 06:58:19 GMT 52.774323 -1.918322 32,375 168 491 1740
2019-12-01 06:58:08 GMT 52.799870 -1.924628 32,100 170 454 1500
2019-12-01 06:57:58 GMT 52.844700 -1.937031 31,800 170 485 780
2019-12-01 06:57:47 GMT 52.844700 -1.937031 31,625 170 487 960
2019-12-01 06:57:35 GMT 52.871017 -1.945388 31,375 174 451 1140
2019-12-01 06:57:24 GMT 52.918545 -1.958500 31,100 169 476 900
2019-12-01 06:57:13 GMT 52.918545 -1.958500 30,925 170 500 900
2019-12-01 06:57:03 GMT 52.938835 -1.964140 30,750 170 463 1140
2019-12-01 06:56:53 GMT 52.962254 -1.970918 30,600 170 435 600
2019-12-01 06:56:43 GMT 53.007271 -1.984481 30,325 169 476 300
2019-12-01 06:56:32 GMT 53.007271 -1.984481 30,200 168 473 600
2019-12-01 06:56:22 GMT 53.026905 -1.988763 30,125 168 525 780
2019-12-01 06:56:11 GMT 53.051861 -1.997153 30,050 171 446 240
2019-12-01 06:56:01 GMT 53.073936 -2.002611 29,975 167 429 360
2019-12-01 06:55:51 GMT 53.093311 -2.009732 29,925 171 392 300
2019-12-01 06:55:41 GMT 53.111279 -2.013951 29,850 166 487 480
2019-12-01 06:55:31 GMT 53.131886 -2.021422 29,800 163 509 780
2019-12-01 06:55:20 GMT 53.154446 -2.027344 29,700 179 431 1560
2019-12-01 06:55:09 GMT 53.175220 -2.036614 29,500 168 468 720
2019-12-01 06:54:59 GMT 53.196449 -2.043941 29,250 171 402 0
2019-12-01 06:54:48 GMT 53.217411 -2.050119 29,025 170 443 -120
2019-12-01 06:54:38 GMT 53.237141 -2.054819 29,000 164 432 60
2019-12-01 06:54:27 GMT 53.258282 -2.062353 28,975 171 455 0
2019-12-01 06:54:16 GMT 53.280228 -2.069715 29,000 159 432 0
2019-12-01 06:54:05 GMT 53.300674 -2.076972 29,000 170 474 0
2019-12-01 06:53:54 GMT 53.322796 -2.085532 29,000 171 418 0
2019-12-01 06:53:43 GMT 53.345352 -2.093307 29,000 170 412 0
2019-12-01 06:53:33 GMT 53.389549 -2.105255 28,975 168 436 0
2019-12-01 06:53:21 GMT 53.389549 -2.105255 29,000 167 399 -120
2019-12-01 06:53:11 GMT 53.409267 -2.114954 29,025 179 418 120
2019-12-01 06:53:01 GMT 53.426552 -2.118664 29,000 175 516 60
2019-12-01 06:52:50 GMT 53.449852 -2.123309 29,000 162 452 0
2019-12-01 06:52:39 GMT 53.471149 -2.131210 29,000 174 407 0
2019-12-01 06:52:28 GMT 53.494774 -2.136511 29,000 170 427 0
2019-12-01 06:52:18 GMT 53.514252 -2.142265 29,000 167 437 0
2019-12-01 06:52:07 GMT 53.537086 -2.148747 29,000 168 493 0
2019-12-01 06:51:56 GMT 53.558754 -2.155351 29,000 169 490 0
2019-12-01 06:51:45 GMT 53.581596 -2.159464 29,000 170 456 0
2019-12-01 06:51:35 GMT 53.602394 -2.165501 29,000 169 453 60
2019-12-01 06:51:25 GMT 53.622974 -2.172219 29,000 171 454 660
2019-12-01 06:51:13 GMT 53.647892 -2.178818 28,975 172 416 0
2019-12-01 06:51:02 GMT 53.671753 -2.189561 29,025 172 457 -660
2019-12-01 06:50:52 GMT 53.692730 -2.194078 29,000 173 412 840
2019-12-01 06:50:42 GMT 53.712070 -2.194037 28,925 175 428 1020
2019-12-01 06:50:31 GMT 53.736622 -2.192217 28,750 186 397 720
2019-12-01 06:50:21 GMT 53.754898 -2.188653 28,575 184 471 1140
2019-12-01 06:50:10 GMT 53.778374 -2.187472 28,350 194 435 1200
2019-12-01 06:50:00 GMT 53.797855 -2.178676 28,125 190 402 900
2019-12-01 06:49:48 GMT 53.820206 -2.169912 27,875 187 428 1020
2019-12-01 06:49:38 GMT 53.840111 -2.165729 27,600 187 433 2100
2019-12-01 06:49:27 GMT 53.861458 -2.165386 27,300 194 420 1260
2019-12-01 06:49:17 GMT 53.900009 -2.152316 27,050 186 357 3180
2019-12-01 06:49:07 GMT 53.900009 -2.152316 26,800 188 408 -960
2019-12-01 06:48:57 GMT 53.918674 -2.147425 26,625 187 425 1140
2019-12-01 06:48:45 GMT 53.962452 -2.137291 26,250 187 414 1080
2019-12-01 06:48:34 GMT 53.962452 -2.137291 25,975 186 400 1800
2019-12-01 06:48:23 GMT 53.982368 -2.132770 25,850 187 417 1620
2019-12-01 06:48:11 GMT 54.026199 -2.121293 25,550 190 371 1380
2019-12-01 06:47:59 GMT 54.026199 -2.121293 25,400 185 427 2520
2019-12-01 06:47:48 GMT 54.047165 -2.117844 25,150 187 383 2400
2019-12-01 06:47:37 GMT 54.066628 -2.113019 24,925 187 400 1920
2019-12-01 06:47:27 GMT 54.084011 -2.108847 24,525 187 405 780
2019-12-01 06:47:16 GMT 54.103043 -2.105061 24,325 188 422 2580
2019-12-01 06:47:05 GMT 54.124321 -2.099762 23,850 187 395 1620
2019-12-01 06:46:52 GMT 54.147873 -2.094358 23,575 187 384 900
2019-12-01 06:46:42 GMT 54.195240 -2.083540 23,175 190 369 1980
2019-12-01 06:46:25 GMT 54.195240 -2.083540 22,800 187 386 1800
2019-12-01 06:46:15 GMT 54.213306 -2.079545 22,500 188 380 1500
2019-12-01 06:46:04 GMT 54.232487 -2.074871 22,250 187 389 2700
2019-12-01 06:45:48 GMT 54.260216 -2.069082 21,675 188 403 1200
2019-12-01 06:45:36 GMT 54.282696 -2.064191 21,300 188 380 2112
2019-12-01 06:45:26 GMT 54.308819 -2.054693 20,900 189 363 2112
2019-12-01 06:45:11 GMT 54.336006 -2.048201 20,550 189 363 2112
2019-12-01 06:45:06 GMT 54.346710 -2.046037 20,150 189 363 2112
2019-12-01 06:44:51 GMT 54.371712 -2.042542 19,825 189 363 2112
2019-12-01 06:44:44 GMT 54.402481 -2.035467 19,475 189 363 2112
2019-12-01 06:44:34 GMT 54.402481 -2.035467 19,100 189 363 2112
2019-12-01 06:44:23 GMT 54.421196 -2.031638 18,825 189 363 2112
2019-12-01 06:44:13 GMT 54.440002 -2.027810 18,475 189 363 2112
2019-12-01 06:43:59 GMT 54.460999 -2.023232 18,100 189 363 2112
2019-12-01 06:43:51 GMT 54.474312 -2.019820 17,650 189 363 2112
2019-12-01 06:43:42 GMT 54.489300 -2.015991 17,275 189 363 2112
2019-12-01 06:43:35 GMT 54.504105 -2.012329 16,900 189 363 2112
2019-12-01 06:43:24 GMT 54.520676 -2.008168 16,500 190 362 2048
2019-12-01 06:43:09 GMT 54.545303 -2.002508 16,175 199 330 2560
2019-12-01 06:43:02 GMT 54.558617 -1.998430 15,600 199 330 2560
2019-12-01 06:42:50 GMT 54.577099 -1.993436 15,500 199 330 2560
2019-12-01 06:42:43 GMT 54.588318 -1.990523 15,100 199 330 2560
2019-12-01 06:42:31 GMT 54.612804 -1.984114 14,725 199 330 2560
2019-12-01 06:42:19 GMT 54.627514 -1.981784 14,375 199 330 2560
2019-12-01 06:42:07 GMT 54.646507 -1.975542 14,075 199 330 2560
2019-12-01 06:41:59 GMT 54.672718 -1.966303 13,550 199 330 2560
2019-12-01 06:41:49 GMT 54.672718 -1.966303 13,225 199 330 2560
2019-12-01 06:41:38 GMT 54.689709 -1.957897 12,800 199 330 2560
2019-12-01 06:41:26 GMT 54.708981 -1.946827 12,425 199 311 1216
2019-12-01 06:41:22 GMT 54.734398 -1.932096 11,900 199 311 1216
2019-12-01 06:41:09 GMT 54.734398 -1.932096 11,525 199 311 1216
2019-12-01 06:40:58 GMT 54.750412 -1.923273 11,100 199 302 1216

Making use of Plane Finder data

You are free to use the raw flight data, aircraft information and images provided in this report for your own purposes provided the data is correctly attributed to Plane Finder. We ask that you please credit Plane Finder and link to planefinder.net in close proximity to the content.

Optionally one of the following logos (no smaller then 150x24px) can be used and must link to planefinder.net

Embedding the Plane Finder map

You are welcome to embed the Plane Finder playback map on your website to offer visitors a more interactive experience. We suggest using the following HTML code:

<iframe src="//planefinder.net/data/report/AF1559-F-HBLF-7700-squawk-2019-12-01/map" width="800" height="600" seamless="seamless"></iframe>

Where our data comes from

Plane Finder has a global network of data feeds and antenna radars that receive data broadcast directly from aircraft. The primary technologies used are ADS-B and MLAT. We also show feeds from the FAA and a FLARM glider feed.

Click here to find out more about the Plane Finder network.

How we collect our data